AirBox status report


DeploymentNumber of DevicesDetailAvg. TemperatureAvg. HumidityAvg. PM2.5Version
1 Edimax AirBox (Taipei) 11.61% (18/155) [HTML] [JSON] [Dataset A]33.62℃ 92.33% 2.5 μg/m3 2018-07-16T22:18:05Z
2 Edimax AirBox (New Taipei) 27.85% (83/298) [HTML] [JSON] [Dataset B]32.42℃ 91.33% 1.66 μg/m3 2018-07-16T22:18:05Z
3 Edimax AirBox (Taoyuan) 26.38% (62/235) [HTML] [JSON] [Dataset A]32.61℃ 78.97% 1.32 μg/m3 2018-07-16T22:18:05Z
4 Edimax AirBox (Taichung) 49.57% (115/232) [HTML] [JSON] [Dataset B]32.69℃ 92.03% 45.46 μg/m3 2018-07-16T22:18:05Z
5 Edimax AirBox (Tainan) 37.38% (80/214) [HTML] [JSON] [Dataset B]32.9℃ 94.66% 38.89 μg/m3 2018-07-16T22:18:05Z
6 Edimax AirBox (Kaohsiung) 48.35% (117/242) [HTML] [JSON] [Dataset B]32.54℃ 96.13% 38.02 μg/m3 2018-07-16T22:18:05Z
7 Edimax AirBox (Korea) 100% (771/771) [HTML] [JSON] [Dataset L]30.51℃ 78.48% 56.13 μg/m3 2018-07-16T22:18:06Z
8 Edimax AirBox (LASS) 8.11% (6/74) [HTML] [JSON] [Dataset A]30.39℃ 84.5% 39.83 μg/m3 2018-07-16T22:18:06Z
9 Edimax AirBox (TaichungZero) 41.22% (61/148) [HTML] [JSON] [Dataset A]32.71℃ 92.51% 48.36 μg/m3 2018-07-16T22:18:06Z
10 Edimax AirBox (TaoyuanFirst) 29.63% (8/27) [HTML] [JSON] [Dataset A]32.44℃ 81.25% 1.5 μg/m3 2018-07-16T22:18:06Z
11 Edimax AirBox (other) 100% (598/598) [HTML] [JSON] [Dataset A]33.25℃ 71% 31 μg/m3 2018-07-16T22:18:06Z
12 LASS AirBox (Hsinchu) 34% (17/50) [HTML] [JSON] [Dataset A]33.28℃ 79.94% 35.65 μg/m3 2018-07-16T22:18:05Z
13 LASS AirBox (Yunlin) 31.09% (60/193) [HTML] [JSON] [Dataset A]32.69℃ 91.95% 43.85 μg/m3 2018-07-16T22:18:05Z
14 LASS AirBox (Chiayi) 41.18% (21/51) [HTML] [JSON] [Dataset A]32.41℃ 90.33% 39.43 μg/m3 2018-07-16T22:18:05Z
15 LASS AirBox (Chiayi County) 28.33% (51/180) [HTML] [JSON] [Dataset A]31.53℃ 85.45% 42.14 μg/m3 2018-07-16T22:18:05Z
16 LASS AirBox (Kinmen) 25% (6/24) [HTML] [JSON] [Dataset A]32.33℃ 89.67% 8 μg/m3 2018-07-16T22:18:06Z
17 LASS (LASS FT) 100% (59/59) [HTML] [JSON] [Dataset C]27.98℃ 65.84% 27.44 μg/m3 2018-07-16T22:18:06Z
18 LASS (LASS4U) 100% (59/59) [HTML] [JSON] [Dataset D]28.43℃ 68.28% 19 μg/m3 2018-07-16T22:18:06Z
19 MAPS (WiFi) 6.9% (6/87) [HTML] [JSON] [Dataset E]-72.45℃ 42.08% 39.17 μg/m3 2018-07-16T22:18:06Z
20 MAPS (RESCUE_TW) 25% (8/32) [HTML] [JSON] [Dataset K]28.69℃ 57.54% 4.88 μg/m3 2018-07-16T22:18:06Z
21 MAPS (other) N/A (0/0) [HTML] [JSON] [Dataset E]0℃ 0% 0 μg/m3 2018-07-16T22:18:06Z
22 ASLUNG 100% (42/42) [HTML] [JSON] [Dataset F]27.59℃ 74.14% 58.14 μg/m3 2018-07-16T22:18:06Z
23 *AirQ 100% (128/128) [HTML] [JSON] [Dataset J]0℃ 0% 41.28 μg/m3 2018-07-16T22:18:06Z
24 *Asus AirBox 100% (62/62) [HTML] [JSON] [Dataset G]30.74℃ 78.77% 22.53 μg/m3 2018-07-16T22:18:06Z
25 *gov Indie N/A (0/0) [HTML] [JSON] [Dataset H]0℃ 0% 0 μg/m3 2018-07-16T22:18:06Z
26 *ProbeCube 100% (5/5) [HTML] [JSON] [Dataset I]29.54℃ 53.16% 11.2 μg/m3 2018-07-16T22:18:06Z
27 Total 61.6% (2443/3966)

Resource:

Note: